createdAt,value
2022-09-23T00:01:15.666Z,2.70
2022-09-23T00:03:45.352Z,2.75
2022-09-23T00:06:14.395Z,2.90
2022-09-23T00:08:41.073Z,2.50
2022-09-23T00:11:19.493Z,4.57
2022-09-23T00:13:48.960Z,3.93
2022-09-23T00:16:20.597Z,2.35
2022-09-23T00:18:47.096Z,4.18
2022-09-23T00:21:14.616Z,3.97
2022-09-23T00:23:42.847Z,4.10
2022-09-23T00:26:12.054Z,3.20
2022-09-23T00:28:38.736Z,3.28
2022-09-23T00:31:07.173Z,5.10
2022-09-23T00:33:33.861Z,3.33
2022-09-23T00:36:11.037Z,2.88
2022-09-23T00:38:38.814Z,4.17
2022-09-23T00:41:06.307Z,2.67
2022-09-23T00:43:45.054Z,7.93
2022-09-23T00:46:26.298Z,3.33
2022-09-23T00:48:59.387Z,2.80
2022-09-23T00:51:33.359Z,2.50
2022-09-23T00:54:02.173Z,2.88
2022-09-23T00:56:31.982Z,2.72
2022-09-23T00:58:59.980Z,2.72
2022-09-23T01:01:26.800Z,3.80
2022-09-23T01:03:54.785Z,4.03
2022-09-23T01:06:21.480Z,3.65
2022-09-23T01:08:48.300Z,5.07
2022-09-23T01:11:45.371Z,2.80
2022-09-23T01:14:40.640Z,3.80
2022-09-23T01:17:23.169Z,3.23
2022-09-23T01:19:49.670Z,3.78
2022-09-23T01:22:32.291Z,3.58
2022-09-23T01:25:26.229Z,2.78
2022-09-23T01:28:08.278Z,3.72
2022-09-23T01:30:51.773Z,3.70
2022-09-23T01:33:30.330Z,2.92
2022-09-23T01:36:26.079Z,2.85
2022-09-23T01:39:03.361Z,3.08
2022-09-23T01:41:32.726Z,3.58
2022-09-23T01:44:11.454Z,3.20
2022-09-23T01:46:48.318Z,3.63
2022-09-23T01:49:25.333Z,2.88
2022-09-23T01:52:03.943Z,3.45
2022-09-23T01:54:55.146Z,4.25
2022-09-23T01:57:36.081Z,3.13
2022-09-23T02:00:11.791Z,4.18
2022-09-23T02:02:49.508Z,3.47
2022-09-23T02:05:26.758Z,4.90
2022-09-23T02:07:59.413Z,3.47
2022-09-23T02:10:31.011Z,3.30
2022-09-23T02:13:05.443Z,3.78
2022-09-23T02:15:42.105Z,3.58
2022-09-23T02:18:14.850Z,4.47
2022-09-23T02:20:43.213Z,5.30
2022-09-23T02:23:17.257Z,4.43
2022-09-23T02:26:04.714Z,4.05
2022-09-23T02:28:43.338Z,4.03
2022-09-23T02:31:19.989Z,4.53
2022-09-23T02:33:53.318Z,3.75
2022-09-23T02:36:29.289Z,6.43
2022-09-23T02:39:02.643Z,5.88
2022-09-23T02:41:38.776Z,4.55
2022-09-23T02:44:12.817Z,5.60
2022-09-23T02:46:39.812Z,4.57
2022-09-23T02:49:12.638Z,4.03
2022-09-23T02:51:40.417Z,4.03
2022-09-23T02:54:10.681Z,3.47
2022-09-23T02:56:37.471Z,3.50
2022-09-23T02:59:04.217Z,4.70
2022-09-23T03:01:56.459Z,3.80
2022-09-23T03:04:35.089Z,3.90
2022-09-23T03:07:10.024Z,4.97
2022-09-23T03:10:04.440Z,3.55
2022-09-23T03:12:52.918Z,3.90
2022-09-23T03:15:35.680Z,4.10
2022-09-23T03:18:18.131Z,3.65
2022-09-23T03:20:50.453Z,3.40
2022-09-23T03:23:26.408Z,3.10
2022-09-23T03:25:58.345Z,4.60
2022-09-23T03:28:27.015Z,3.50
2022-09-23T03:30:56.049Z,3.90
2022-09-23T03:33:28.850Z,3.65
2022-09-23T03:36:24.436Z,3.42
2022-09-23T03:38:54.462Z,4.57
2022-09-23T03:41:34.317Z,3.10
2022-09-23T03:44:02.310Z,5.00
2022-09-23T03:46:30.031Z,3.00
2022-09-23T03:49:04.272Z,4.03
2022-09-23T03:51:30.986Z,3.38
2022-09-23T03:53:57.553Z,3.53
2022-09-23T03:56:24.173Z,3.00
2022-09-23T03:58:51.120Z,3.80
2022-09-23T04:01:17.660Z,3.67
2022-09-23T04:03:44.119Z,3.13
2022-09-23T04:06:10.553Z,4.60
2022-09-23T04:08:37.050Z,3.78
2022-09-23T04:11:04.883Z,3.13
2022-09-23T04:13:31.998Z,3.00
2022-09-23T04:15:58.518Z,3.10
2022-09-23T04:18:25.251Z,4.53
2022-09-23T04:20:51.714Z,2.97
2022-09-23T04:23:18.172Z,4.25
2022-09-23T04:25:49.189Z,4.43
2022-09-23T04:28:15.933Z,4.65
2022-09-23T04:30:43.845Z,4.13
2022-09-23T04:33:11.342Z,8.90
2022-09-23T04:35:40.370Z,5.45
2022-09-23T04:38:07.209Z,3.67
2022-09-23T04:40:34.241Z,3.00
2022-09-23T04:43:01.143Z,3.50
2022-09-23T04:45:27.736Z,3.00
2022-09-23T04:47:54.498Z,3.30
2022-09-23T04:50:21.062Z,3.08
2022-09-23T04:52:47.479Z,2.90
2022-09-23T04:55:13.971Z,3.03
2022-09-23T04:57:40.584Z,3.00
2022-09-23T05:00:07.779Z,3.85
2022-09-23T05:02:35.662Z,3.72
2022-09-23T05:05:02.163Z,3.67
2022-09-23T05:07:28.667Z,3.53
2022-09-23T05:09:55.260Z,5.63
2022-09-23T05:12:21.933Z,3.45
2022-09-23T05:14:48.708Z,2.80
2022-09-23T05:17:15.568Z,4.10
2022-09-23T05:19:42.503Z,3.63
2022-09-23T05:22:08.948Z,6.20
2022-09-23T05:24:35.458Z,3.03
2022-09-23T05:27:02.092Z,5.55
2022-09-23T05:29:29.107Z,3.65
2022-09-23T05:31:55.649Z,3.70
2022-09-23T05:34:23.194Z,4.55
2022-09-23T05:36:49.705Z,4.53
2022-09-23T05:39:16.363Z,5.03
2022-09-23T05:41:43.488Z,4.65
2022-09-23T05:44:10.120Z,4.07
2022-09-23T05:46:36.687Z,4.15
2022-09-23T05:49:05.460Z,5.47
2022-09-23T05:51:33.521Z,6.70
2022-09-23T05:54:03.086Z,4.40
2022-09-23T05:56:30.567Z,4.87
2022-09-23T05:58:58.965Z,4.13
2022-09-23T06:01:28.847Z,5.28
2022-09-23T06:03:57.188Z,4.40
2022-09-23T06:06:34.446Z,6.40
2022-09-23T06:09:01.796Z,7.07
2022-09-23T06:11:33.046Z,6.00
2022-09-23T06:14:03.063Z,7.70
2022-09-23T06:16:32.409Z,4.78
2022-09-23T06:19:04.530Z,4.50
2022-09-23T06:21:34.266Z,5.60
2022-09-23T06:24:01.187Z,5.88
2022-09-23T06:26:33.899Z,5.10
2022-09-23T06:29:03.904Z,5.50
2022-09-23T06:31:41.324Z,4.93
2022-09-23T06:34:13.234Z,5.10
2022-09-23T06:36:45.573Z,5.07
2022-09-23T06:39:23.167Z,7.40
2022-09-23T06:41:53.833Z,5.10
2022-09-23T06:44:22.079Z,5.53
2022-09-23T06:46:49.070Z,5.13
2022-09-23T06:49:18.845Z,4.88
2022-09-23T06:51:46.499Z,7.88
2022-09-23T06:54:13.864Z,6.00
2022-09-23T06:56:41.448Z,5.82
2022-09-23T06:59:11.044Z,5.77
2022-09-23T07:01:39.402Z,7.20
2022-09-23T07:04:07.857Z,7.97
2022-09-23T07:06:34.614Z,6.55
2022-09-23T07:09:01.388Z,7.07
2022-09-23T07:11:29.350Z,8.73
2022-09-23T07:13:56.250Z,9.13
2022-09-23T07:16:23.503Z,8.13
2022-09-23T07:18:50.494Z,10.00
2022-09-23T07:21:19.477Z,9.63
2022-09-23T07:23:48.423Z,9.40
2022-09-23T07:26:16.418Z,10.10
2022-09-23T07:28:43.667Z,10.52
2022-09-23T07:31:14.189Z,9.75
2022-09-23T07:33:44.356Z,9.10
2022-09-23T07:36:19.652Z,8.97
2022-09-23T07:38:47.607Z,9.70
2022-09-23T07:41:17.933Z,10.88
2022-09-23T07:43:46.263Z,9.77
2022-09-23T07:46:17.017Z,9.35
2022-09-23T07:48:46.804Z,9.13
2022-09-23T07:51:23.884Z,11.30
2022-09-23T07:53:52.626Z,10.80
2022-09-23T07:56:22.896Z,9.35
2022-09-23T07:59:00.422Z,10.25
2022-09-23T08:01:29.526Z,10.90
2022-09-23T08:04:01.366Z,11.80
2022-09-23T08:06:27.982Z,9.55
2022-09-23T08:08:58.860Z,10.00
2022-09-23T08:11:29.209Z,10.57
2022-09-23T08:13:56.839Z,8.97
2022-09-23T08:16:25.612Z,10.70
2022-09-23T08:18:52.416Z,11.77
2022-09-23T08:21:21.549Z,10.55
2022-09-23T08:23:49.667Z,9.60
2022-09-23T08:26:21.731Z,8.90
2022-09-23T08:28:51.959Z,9.15
2022-09-23T08:31:35.395Z,10.13
2022-09-23T08:34:09.088Z,8.85
2022-09-23T08:36:37.251Z,7.32
2022-09-23T08:39:13.542Z,7.77
2022-09-23T08:42:09.148Z,8.32
2022-09-23T08:45:00.135Z,6.95
2022-09-23T08:47:32.397Z,6.68
2022-09-23T08:50:20.859Z,6.95
2022-09-23T08:52:57.505Z,7.30
2022-09-23T08:55:40.835Z,6.82
2022-09-23T08:58:26.755Z,8.27
2022-09-23T09:01:13.292Z,6.20
2022-09-23T09:04:01.346Z,6.60
2022-09-23T09:06:53.043Z,6.47
2022-09-23T09:09:34.097Z,7.80
2022-09-23T09:12:21.647Z,6.00
2022-09-23T09:15:15.877Z,6.00
2022-09-23T09:18:13.038Z,5.93
2022-09-23T09:20:49.004Z,7.57
2022-09-23T09:23:15.382Z,5.28
2022-09-23T09:25:51.957Z,7.72
2022-09-23T09:28:39.514Z,5.05
2022-09-23T09:31:33.011Z,6.00
2022-09-23T09:34:34.145Z,5.87
2022-09-23T09:37:20.886Z,5.85
2022-09-23T09:39:47.424Z,6.68
2022-09-23T09:42:21.484Z,8.50
2022-09-23T09:45:02.896Z,6.18
2022-09-23T09:47:35.307Z,5.70
2022-09-23T09:50:14.333Z,6.47
2022-09-23T09:52:43.268Z,6.53
2022-09-23T09:55:12.933Z,7.55
2022-09-23T09:57:47.721Z,6.20
2022-09-23T10:00:26.776Z,6.23
2022-09-23T10:02:57.251Z,7.93
2022-09-23T10:05:34.340Z,6.32
2022-09-23T10:08:24.996Z,5.40
2022-09-23T10:11:17.827Z,5.85
2022-09-23T10:14:05.002Z,5.17
2022-09-23T10:16:35.184Z,6.57
2022-09-23T10:19:26.374Z,6.53
2022-09-23T10:22:07.173Z,6.47
2022-09-23T10:24:39.516Z,8.25
2022-09-23T10:27:15.854Z,4.70
2022-09-23T10:29:57.740Z,7.10
2022-09-23T10:32:27.677Z,7.82
2022-09-23T10:35:09.266Z,6.95
2022-09-23T10:37:38.994Z,5.50
2022-09-23T10:40:57.917Z,4.13
2022-09-23T10:44:05.087Z,5.57
2022-09-23T10:46:38.859Z,4.78
2022-09-23T10:49:33.099Z,4.50
2022-09-23T10:52:09.308Z,7.03
2022-09-23T10:55:05.143Z,5.43
2022-09-23T10:57:53.590Z,4.25
2022-09-23T11:00:40.869Z,6.43
2022-09-23T11:03:09.314Z,5.07
2022-09-23T11:05:48.869Z,6.45
2022-09-23T11:08:27.724Z,8.23
2022-09-23T11:10:56.368Z,4.60
2022-09-23T11:13:34.735Z,5.70
2022-09-23T11:16:14.128Z,4.97
2022-09-23T11:19:06.022Z,4.85
2022-09-23T11:21:48.790Z,4.77
2022-09-23T11:24:28.133Z,5.55
2022-09-23T11:27:06.205Z,4.63
2022-09-23T11:29:52.058Z,4.75
2022-09-23T11:35:36.744Z,4.77
2022-09-23T11:38:10.261Z,5.10
2022-09-23T11:40:43.685Z,5.35
2022-09-23T11:43:28.587Z,4.90
2022-09-23T11:46:29.644Z,4.63
2022-09-23T11:49:05.300Z,5.20
2022-09-23T11:51:59.438Z,5.72
2022-09-23T11:54:38.551Z,4.30
2022-09-23T11:57:09.610Z,6.28
2022-09-23T11:59:51.749Z,4.90
2022-09-23T12:02:30.742Z,5.53
2022-09-23T12:05:17.348Z,5.13
2022-09-23T12:07:54.646Z,3.60
2022-09-23T12:10:48.391Z,3.67
2022-09-23T12:13:27.339Z,4.63
2022-09-23T12:16:02.453Z,5.33
2022-09-23T12:19:14.079Z,4.22
2022-09-23T12:22:08.051Z,3.13
2022-09-23T12:24:45.759Z,3.50
2022-09-23T12:27:23.966Z,2.90
2022-09-23T12:29:56.815Z,3.33
2022-09-23T12:32:25.081Z,2.78
2022-09-23T12:34:53.437Z,3.80
2022-09-23T12:37:43.253Z,4.88
2022-09-23T12:40:22.818Z,3.92
2022-09-23T12:42:50.237Z,3.83
2022-09-23T12:45:32.587Z,2.47
2022-09-23T12:48:17.980Z,2.88
2022-09-23T12:50:54.640Z,3.10
2022-09-23T12:53:33.525Z,2.78
2022-09-23T12:56:13.718Z,2.67
2022-09-23T12:58:43.277Z,4.80
2022-09-23T13:01:17.157Z,2.50
2022-09-23T13:04:08.054Z,3.00
2022-09-23T13:06:56.570Z,3.85
2022-09-23T13:09:27.072Z,3.10
2022-09-23T13:11:59.816Z,3.65
2022-09-23T13:14:28.584Z,3.17
2022-09-23T13:16:58.343Z,5.15
2022-09-23T13:19:28.089Z,3.72
2022-09-23T13:21:54.493Z,3.20
2022-09-23T13:24:29.996Z,7.32
2022-09-23T13:27:05.695Z,2.55
2022-09-23T13:29:42.303Z,5.72
2022-09-23T13:32:14.933Z,3.67
2022-09-23T13:34:44.311Z,5.57
2022-09-23T13:37:22.528Z,2.97
2022-09-23T13:39:49.938Z,3.05
2022-09-23T13:42:28.592Z,3.45
2022-09-23T13:44:57.539Z,4.72
2022-09-23T13:47:27.668Z,4.63
2022-09-23T13:49:54.441Z,3.58
2022-09-23T13:52:30.892Z,3.75
2022-09-23T13:54:57.526Z,3.75
2022-09-23T13:57:33.821Z,4.32
2022-09-23T14:00:22.230Z,3.33
2022-09-23T14:02:48.686Z,2.80
2022-09-23T14:05:23.818Z,4.20
2022-09-23T14:07:55.963Z,4.32
2022-09-23T14:10:24.723Z,3.58
2022-09-23T14:12:52.803Z,2.93
2022-09-23T14:15:21.079Z,3.03
2022-09-23T14:18:03.706Z,2.97
2022-09-23T14:20:30.104Z,2.63
2022-09-23T14:23:05.548Z,2.92
2022-09-23T14:25:32.965Z,4.50
2022-09-23T14:28:00.658Z,7.07
2022-09-23T14:30:27.378Z,5.32
2022-09-23T14:32:53.939Z,3.55
2022-09-23T14:35:27.432Z,4.25
2022-09-23T14:38:14.946Z,3.43
2022-09-23T14:41:17.348Z,3.72
2022-09-23T14:43:49.475Z,3.92
2022-09-23T14:46:21.255Z,3.97
2022-09-23T14:48:54.527Z,2.70
2022-09-23T14:51:22.825Z,4.13
2022-09-23T14:53:49.392Z,4.53
2022-09-23T14:56:22.499Z,5.03
2022-09-23T14:58:53.191Z,5.15
2022-09-23T15:01:32.493Z,5.15
2022-09-23T15:04:08.950Z,5.67
2022-09-23T15:06:37.912Z,7.22
2022-09-23T15:09:05.840Z,4.72
2022-09-23T15:11:34.701Z,5.93
2022-09-23T15:14:19.687Z,6.88
2022-09-23T15:16:49.729Z,5.53
2022-09-23T15:19:19.964Z,5.03
2022-09-23T15:21:47.889Z,6.03
2022-09-23T15:24:42.560Z,5.72
2022-09-23T15:27:25.523Z,4.97
2022-09-23T15:29:52.984Z,6.23
2022-09-23T15:32:20.112Z,5.38
2022-09-23T15:34:48.860Z,6.75
2022-09-23T15:37:15.329Z,6.28
2022-09-23T15:39:41.828Z,10.25
2022-09-23T15:42:10.171Z,6.00
2022-09-23T15:44:37.943Z,9.02
2022-09-23T15:47:04.736Z,6.32
2022-09-23T15:49:36.461Z,7.55
2022-09-23T15:52:05.002Z,6.10
2022-09-23T15:54:34.734Z,7.47
2022-09-23T15:57:01.326Z,5.85
2022-09-23T15:59:29.769Z,7.82
2022-09-23T16:01:58.689Z,5.95
2022-09-23T16:04:26.148Z,6.07
2022-09-23T16:06:53.130Z,7.53
2022-09-23T16:09:19.611Z,5.72
2022-09-23T16:11:48.376Z,6.63
2022-09-23T16:14:16.735Z,7.38
2022-09-23T16:16:45.280Z,5.47
2022-09-23T16:19:12.387Z,10.43
2022-09-23T16:21:40.898Z,13.55
2022-09-23T16:24:18.434Z,10.52
2022-09-23T16:26:47.126Z,8.80
2022-09-23T16:29:14.688Z,9.43
2022-09-23T16:31:41.246Z,8.57
2022-09-23T16:34:08.103Z,10.15
2022-09-23T16:36:38.261Z,10.20
2022-09-23T16:39:07.072Z,15.50
2022-09-23T16:41:33.817Z,17.25
2022-09-23T16:44:02.248Z,14.53
2022-09-23T16:46:29.480Z,14.15
2022-09-23T16:48:57.591Z,16.58
2022-09-23T16:51:30.050Z,15.50
2022-09-23T16:53:58.215Z,11.20
2022-09-23T16:56:28.925Z,9.20
2022-09-23T16:58:57.166Z,8.25
2022-09-23T17:01:44.376Z,10.35
2022-09-23T17:04:11.586Z,9.40
2022-09-23T17:06:51.744Z,8.93
2022-09-23T17:09:20.240Z,7.97
2022-09-23T17:11:50.536Z,10.02
2022-09-23T17:14:17.006Z,9.13
2022-09-23T17:16:44.018Z,11.18
2022-09-23T17:19:12.257Z,10.60
2022-09-23T17:21:39.183Z,8.27
2022-09-23T17:24:06.748Z,10.68
2022-09-23T17:26:33.926Z,11.00
2022-09-23T17:29:00.967Z,10.68
2022-09-23T17:31:28.087Z,11.45
2022-09-23T17:33:54.602Z,12.70
2022-09-23T17:36:21.975Z,11.38
2022-09-23T17:38:49.436Z,11.35
2022-09-23T17:41:17.248Z,13.98
2022-09-23T17:43:45.390Z,11.18
2022-09-23T17:46:16.269Z,9.70
2022-09-23T17:48:43.264Z,10.70
2022-09-23T17:51:18.817Z,11.98
2022-09-23T17:53:47.151Z,21.23
2022-09-23T17:56:21.142Z,20.50
2022-09-23T17:58:49.350Z,16.03
2022-09-23T18:01:19.142Z,23.83
2022-09-23T18:03:46.554Z,20.05
2022-09-23T18:06:15.990Z,15.45
2022-09-23T18:08:44.127Z,13.18
2022-09-23T18:11:22.173Z,14.90
2022-09-23T18:13:51.387Z,15.50
2022-09-23T18:16:18.348Z,14.32
2022-09-23T18:18:50.117Z,14.82
2022-09-23T18:21:16.636Z,16.58
2022-09-23T18:23:43.076Z,17.17
2022-09-23T18:26:22.746Z,17.88
2022-09-23T18:28:50.166Z,14.77
2022-09-23T18:31:16.810Z,16.60
2022-09-23T18:33:43.344Z,18.42
2022-09-23T18:36:10.080Z,18.40
2022-09-23T18:38:36.524Z,15.93
2022-09-23T18:41:03.367Z,16.67
2022-09-23T18:43:40.784Z,14.05
2022-09-23T18:46:15.784Z,16.08
2022-09-23T18:49:01.429Z,16.43
2022-09-23T18:51:29.562Z,15.98
2022-09-23T18:53:59.921Z,17.60
2022-09-23T18:56:29.603Z,15.13
2022-09-23T18:58:56.677Z,16.65
2022-09-23T19:01:24.217Z,17.27
2022-09-23T19:03:57.451Z,18.10
2022-09-23T19:06:25.060Z,18.23
2022-09-23T19:08:53.336Z,16.27
2022-09-23T19:11:21.029Z,18.20
2022-09-23T19:13:52.253Z,18.50
2022-09-23T19:16:18.775Z,15.07
2022-09-23T19:18:48.907Z,16.10
2022-09-23T19:21:20.396Z,17.05
2022-09-23T19:23:53.122Z,16.85
2022-09-23T19:26:25.816Z,14.53
2022-09-23T19:28:55.052Z,17.00
2022-09-23T19:31:33.441Z,14.75
2022-09-23T19:34:11.635Z,18.65
2022-09-23T19:36:40.840Z,17.27
2022-09-23T19:39:12.277Z,17.80
2022-09-23T19:41:38.731Z,17.92
2022-09-23T19:44:07.291Z,20.80
2022-09-23T19:46:37.770Z,14.90
2022-09-23T19:49:06.222Z,14.80
2022-09-23T19:51:36.956Z,15.43
2022-09-23T19:54:04.962Z,16.60
2022-09-23T19:56:32.470Z,15.18
2022-09-23T19:58:59.936Z,16.65
2022-09-23T20:01:29.328Z,18.40
2022-09-23T20:03:56.217Z,15.27
2022-09-23T20:06:23.213Z,16.13
2022-09-23T20:08:50.425Z,20.58
2022-09-23T20:11:23.662Z,15.48
2022-09-23T20:14:00.773Z,20.55
2022-09-23T20:16:31.821Z,15.17
2022-09-23T20:18:59.912Z,19.27
2022-09-23T20:21:28.223Z,15.65
2022-09-23T20:23:54.907Z,17.60
2022-09-23T20:26:39.823Z,21.10
2022-09-23T20:29:06.263Z,20.53
2022-09-23T20:31:34.633Z,18.70
2022-09-23T20:34:05.445Z,14.45
2022-09-23T20:36:33.179Z,17.98
2022-09-23T20:39:02.015Z,19.00
2022-09-23T20:41:30.173Z,18.60
2022-09-23T20:44:01.306Z,17.60
2022-09-23T20:46:28.835Z,20.25
2022-09-23T20:48:56.624Z,18.67
2022-09-23T20:51:24.688Z,17.98
2022-09-23T20:53:52.877Z,18.37
2022-09-23T20:56:21.447Z,18.23
2022-09-23T20:58:48.700Z,16.25
2022-09-23T21:01:15.740Z,18.45
2022-09-23T21:03:44.807Z,18.20
2022-09-23T21:06:14.470Z,16.50
2022-09-23T21:08:44.777Z,20.48
2022-09-23T21:11:16.863Z,19.13
2022-09-23T21:13:47.936Z,17.40
2022-09-23T21:16:17.462Z,18.85
2022-09-23T21:18:47.669Z,19.93
2022-09-23T21:21:14.724Z,17.38
2022-09-23T21:23:43.386Z,18.58
2022-09-23T21:26:14.117Z,17.08
2022-09-23T21:28:45.420Z,15.75
2022-09-23T21:31:26.164Z,19.03
2022-09-23T21:34:01.895Z,19.20
2022-09-23T21:36:30.956Z,20.30
2022-09-23T21:38:58.118Z,15.60
2022-09-23T21:41:25.227Z,21.08
2022-09-23T21:43:51.703Z,17.90
2022-09-23T21:46:20.427Z,19.77
2022-09-23T21:48:53.591Z,19.02
2022-09-23T21:51:26.035Z,16.67
2022-09-23T21:53:57.724Z,16.98
2022-09-23T21:56:26.479Z,19.27
2022-09-23T21:58:54.190Z,18.23
2022-09-23T22:01:23.552Z,18.63
2022-09-23T22:03:52.882Z,19.95
2022-09-23T22:06:21.865Z,18.33
2022-09-23T22:08:54.572Z,16.67
2022-09-23T22:11:41.574Z,16.73
2022-09-23T22:14:11.170Z,20.35
2022-09-23T22:16:39.011Z,20.02
2022-09-23T22:19:06.996Z,21.08
2022-09-23T22:21:36.596Z,19.97
2022-09-23T22:24:04.691Z,20.52
2022-09-23T22:26:33.150Z,19.85
2022-09-23T22:29:18.619Z,18.73
2022-09-23T22:32:03.463Z,20.98
2022-09-23T22:34:49.036Z,20.63
2022-09-23T22:37:18.992Z,19.17
2022-09-23T22:39:45.961Z,21.65
2022-09-23T22:42:13.085Z,21.65
2022-09-23T22:44:39.884Z,21.88
2022-09-23T22:47:06.518Z,22.23
2022-09-23T22:49:33.103Z,20.23
2022-09-23T22:51:59.892Z,23.75
2022-09-23T22:54:33.654Z,22.40
2022-09-23T22:57:03.155Z,22.15
2022-09-23T22:59:30.036Z,23.33
2022-09-23T23:01:57.192Z,22.13
2022-09-23T23:04:23.804Z,22.40
2022-09-23T23:06:51.194Z,24.85
2022-09-23T23:09:18.855Z,23.30
2022-09-23T23:11:45.800Z,23.30
2022-09-23T23:14:13.842Z,22.70
2022-09-23T23:16:40.411Z,23.67
2022-09-23T23:19:09.811Z,23.20
2022-09-23T23:21:37.157Z,24.20
2022-09-23T23:24:05.079Z,21.63
2022-09-23T23:26:35.285Z,22.30
2022-09-23T23:29:01.802Z,25.80
2022-09-23T23:31:29.259Z,22.50
2022-09-23T23:33:55.824Z,25.08
2022-09-23T23:36:23.533Z,28.67
2022-09-23T23:38:53.857Z,25.42
2022-09-23T23:41:22.791Z,26.42
2022-09-23T23:43:55.240Z,26.55
2022-09-23T23:46:25.363Z,27.15
2022-09-23T23:48:53.033Z,25.77
2022-09-23T23:51:20.109Z,24.25
2022-09-23T23:53:47.565Z,25.42
2022-09-23T23:56:19.159Z,25.23
2022-09-23T23:58:48.110Z,29.30
